createdAt,value
2018-12-19T00:00:53.398Z,16.60
2018-12-19T00:03:21.762Z,15.88
2018-12-19T00:05:50.084Z,17.57
2018-12-19T00:08:18.796Z,16.60
2018-12-19T00:10:47.145Z,15.33
2018-12-19T00:13:15.960Z,16.57
2018-12-19T00:15:44.345Z,15.90
2018-12-19T00:18:13.489Z,15.03
2018-12-19T00:20:41.807Z,16.37
2018-12-19T00:23:10.211Z,17.10
2018-12-19T00:25:39.185Z,16.07
2018-12-19T00:28:07.555Z,15.60
2018-12-19T00:30:36.051Z,15.15
2018-12-19T00:33:04.475Z,15.70
2018-12-19T00:35:33.033Z,15.37
2018-12-19T00:38:01.406Z,16.27
2018-12-19T00:40:29.817Z,16.93
2018-12-19T00:42:58.189Z,16.03
2018-12-19T00:45:26.517Z,17.27
2018-12-19T00:47:54.892Z,15.20
2018-12-19T00:50:23.302Z,17.33
2018-12-19T00:52:51.645Z,16.77
2018-12-19T00:55:20.115Z,16.40
2018-12-19T00:57:48.491Z,16.67
2018-12-19T01:00:17.620Z,15.67
2018-12-19T01:02:45.966Z,15.50
2018-12-19T01:05:14.748Z,15.40
2018-12-19T01:07:43.617Z,16.97
2018-12-19T01:10:11.969Z,16.50
2018-12-19T01:12:41.557Z,16.02
2018-12-19T01:15:09.990Z,15.90
2018-12-19T01:17:38.521Z,15.13
2018-12-19T01:20:07.217Z,15.97
2018-12-19T01:22:35.538Z,15.80
2018-12-19T01:25:04.691Z,16.23
2018-12-19T01:27:33.062Z,15.90
2018-12-19T01:30:01.724Z,15.77
2018-12-19T01:32:30.150Z,15.67
2018-12-19T01:34:58.477Z,14.70
2018-12-19T01:37:26.820Z,15.78
2018-12-19T01:39:55.182Z,14.20
2018-12-19T01:42:23.518Z,14.63
2018-12-19T01:44:51.893Z,16.40
2018-12-19T01:47:20.240Z,15.63
2018-12-19T01:49:48.687Z,16.10
2018-12-19T01:52:17.039Z,16.20
2018-12-19T01:54:45.394Z,15.20
2018-12-19T01:57:13.906Z,15.97
2018-12-19T01:59:42.241Z,16.87
2018-12-19T02:02:10.833Z,17.20
2018-12-19T02:04:41.270Z,15.00
2018-12-19T02:07:09.732Z,14.90
2018-12-19T02:09:38.097Z,16.10
2018-12-19T02:12:06.504Z,14.97
2018-12-19T02:14:34.924Z,16.83
2018-12-19T02:17:03.280Z,18.27
2018-12-19T02:19:31.617Z,16.43
2018-12-19T02:22:00.019Z,16.77
2018-12-19T02:24:28.377Z,15.90
2018-12-19T02:26:56.713Z,14.93
2018-12-19T02:29:25.062Z,15.50
2018-12-19T02:31:53.415Z,15.50
2018-12-19T02:34:21.766Z,15.23
2018-12-19T02:36:50.126Z,16.73
2018-12-19T02:39:18.777Z,17.40
2018-12-19T02:41:47.125Z,15.60
2018-12-19T02:44:15.740Z,15.90
2018-12-19T02:46:44.073Z,16.30
2018-12-19T02:49:12.400Z,16.27
2018-12-19T02:51:41.693Z,15.83
2018-12-19T02:54:11.131Z,16.67
2018-12-19T02:56:40.268Z,15.13
2018-12-19T02:59:08.674Z,16.43
2018-12-19T03:01:37.049Z,14.57
2018-12-19T03:04:05.390Z,15.20
2018-12-19T03:06:33.724Z,14.70
2018-12-19T03:09:02.077Z,15.00
2018-12-19T03:11:30.389Z,16.00
2018-12-19T03:13:58.817Z,16.17
2018-12-19T03:16:27.157Z,15.90
2018-12-19T03:18:55.526Z,16.25
2018-12-19T03:21:23.891Z,16.97
2018-12-19T03:23:52.233Z,17.00
2018-12-19T03:26:20.823Z,16.02
2018-12-19T03:28:49.187Z,14.60
2018-12-19T03:31:17.625Z,15.53
2018-12-19T03:33:46.054Z,15.13
2018-12-19T03:36:14.807Z,14.77
2018-12-19T03:38:43.154Z,15.57
2018-12-19T03:41:11.494Z,16.33
2018-12-19T03:43:39.858Z,15.15
2018-12-19T03:46:08.304Z,14.30
2018-12-19T03:48:38.067Z,14.47
2018-12-19T03:51:06.410Z,16.35
2018-12-19T03:53:34.766Z,15.90
2018-12-19T03:56:03.095Z,13.90
2018-12-19T03:58:31.428Z,14.93
2018-12-19T04:01:00.232Z,15.83
2018-12-19T04:03:28.609Z,13.53
2018-12-19T04:05:56.994Z,15.78
2018-12-19T04:08:25.370Z,15.43
2018-12-19T04:10:53.710Z,15.57
2018-12-19T04:13:22.081Z,14.63
2018-12-19T04:15:50.421Z,14.97
2018-12-19T04:18:18.775Z,14.40
2018-12-19T04:20:47.119Z,16.32
2018-12-19T04:23:16.039Z,15.57
2018-12-19T04:25:44.388Z,16.00
2018-12-19T04:28:12.774Z,15.20
2018-12-19T04:30:41.145Z,14.90
2018-12-19T04:33:09.489Z,14.60
2018-12-19T04:35:38.609Z,14.43
2018-12-19T04:38:06.958Z,15.50
2018-12-19T04:40:35.278Z,15.98
2018-12-19T04:43:04.700Z,15.60
2018-12-19T04:45:33.053Z,16.00
2018-12-19T04:48:01.401Z,14.63
2018-12-19T04:50:29.728Z,15.47
2018-12-19T04:52:58.077Z,16.70
2018-12-19T04:55:26.453Z,15.17
2018-12-19T04:57:54.800Z,16.53
2018-12-19T05:00:23.153Z,13.97
2018-12-19T05:02:51.499Z,15.43
2018-12-19T05:05:19.842Z,14.60
2018-12-19T05:07:48.176Z,16.20
2018-12-19T05:10:17.878Z,14.43
2018-12-19T05:12:46.283Z,14.93
2018-12-19T05:15:15.209Z,15.35
2018-12-19T05:17:44.023Z,15.25
2018-12-19T05:20:12.926Z,16.50
2018-12-19T05:22:41.264Z,15.73
2018-12-19T05:25:13.014Z,14.50
2018-12-19T05:27:41.396Z,14.90
2018-12-19T05:30:09.877Z,14.40
2018-12-19T05:32:38.240Z,15.27
2018-12-19T05:35:06.811Z,14.90
2018-12-19T05:37:35.222Z,14.30
2018-12-19T05:40:04.910Z,15.60
2018-12-19T05:42:33.239Z,14.98
2018-12-19T05:45:02.314Z,14.75
2018-12-19T05:47:30.815Z,16.27
2018-12-19T05:49:59.227Z,15.63
2018-12-19T05:52:27.633Z,15.30
2018-12-19T05:54:56.043Z,17.33
2018-12-19T05:57:24.393Z,15.53
2018-12-19T05:59:52.744Z,16.00
2018-12-19T06:02:21.106Z,16.60
2018-12-19T06:04:49.438Z,15.63
2018-12-19T06:07:17.801Z,15.90
2018-12-19T06:09:46.139Z,16.73
2018-12-19T06:12:14.835Z,16.87
2018-12-19T06:14:43.238Z,15.50
2018-12-19T06:17:11.585Z,16.05
2018-12-19T06:19:39.897Z,16.00
2018-12-19T06:22:08.298Z,15.50
2018-12-19T06:24:36.616Z,16.07
2018-12-19T06:27:05.031Z,15.90
2018-12-19T06:29:33.379Z,15.57
2018-12-19T06:32:01.732Z,17.63
2018-12-19T06:34:30.075Z,15.77
2018-12-19T06:36:58.439Z,14.60
2018-12-19T06:39:27.070Z,16.90
2018-12-19T06:41:55.425Z,17.50
2018-12-19T06:44:23.796Z,15.68
2018-12-19T06:46:52.140Z,15.60
2018-12-19T06:49:20.478Z,15.83
2018-12-19T06:51:48.827Z,16.30
2018-12-19T06:54:17.304Z,15.20
2018-12-19T06:56:45.672Z,16.20
2018-12-19T06:59:13.996Z,17.57
2018-12-19T07:01:42.381Z,16.90
2018-12-19T07:04:10.735Z,16.30
2018-12-19T07:06:39.167Z,16.65
2018-12-19T07:09:07.970Z,16.60
2018-12-19T07:11:36.342Z,15.00
2018-12-19T07:14:04.669Z,16.30
2018-12-19T07:16:33.015Z,15.88
2018-12-19T07:19:01.347Z,15.53
2018-12-19T07:21:29.702Z,15.70
2018-12-19T07:23:58.059Z,15.32
2018-12-19T07:26:26.379Z,14.55
2018-12-19T07:28:54.726Z,17.20
2018-12-19T07:31:23.131Z,15.10
2018-12-19T07:33:51.465Z,16.32
2018-12-19T07:36:19.810Z,15.93
2018-12-19T07:38:48.140Z,15.20
2018-12-19T07:41:17.847Z,16.07
2018-12-19T07:43:46.759Z,13.33
2018-12-19T07:46:19.779Z,14.90
2018-12-19T07:48:45.591Z,14.40
2018-12-19T07:51:14.022Z,15.33
2018-12-19T07:53:42.364Z,15.55
2018-12-19T07:56:10.821Z,13.70
2018-12-19T07:58:39.176Z,13.83
2018-12-19T08:01:07.691Z,15.13
2018-12-19T08:03:36.082Z,14.23
2018-12-19T08:06:04.476Z,14.30
2018-12-19T08:08:32.923Z,14.90
2018-12-19T08:11:01.378Z,15.00
2018-12-19T08:13:29.735Z,15.63
2018-12-19T08:15:58.064Z,16.32
2018-12-19T08:18:26.423Z,15.97
2018-12-19T08:20:54.772Z,16.40
2018-12-19T08:23:23.149Z,15.73
2018-12-19T08:25:51.459Z,17.70
2018-12-19T08:28:19.851Z,15.70
2018-12-19T08:30:48.183Z,17.30
2018-12-19T08:33:16.550Z,17.40
2018-12-19T08:35:44.876Z,16.42
2018-12-19T08:38:13.219Z,16.57
2018-12-19T08:40:41.604Z,16.67
2018-12-19T08:43:10.057Z,18.00
2018-12-19T08:45:38.813Z,18.40
2018-12-19T08:48:07.244Z,16.90
2018-12-19T08:50:35.550Z,16.87
2018-12-19T08:53:03.898Z,16.95
2018-12-19T08:55:32.253Z,18.07
2018-12-19T08:58:00.586Z,17.95
2018-12-19T09:00:28.927Z,16.90
2018-12-19T09:02:58.165Z,17.42
2018-12-19T09:05:26.583Z,16.23
2018-12-19T09:07:54.957Z,17.57
2018-12-19T09:10:23.303Z,17.80
2018-12-19T09:12:51.701Z,17.20
2018-12-19T09:15:27.522Z,17.73
2018-12-19T09:17:52.349Z,15.70
2018-12-19T09:20:20.758Z,17.20
2018-12-19T09:22:49.253Z,17.20
2018-12-19T09:25:17.600Z,15.90
2018-12-19T09:27:46.098Z,16.33
2018-12-19T09:30:14.427Z,16.23
2018-12-19T09:32:42.795Z,16.70
2018-12-19T09:35:11.729Z,16.03
2018-12-19T09:37:40.045Z,16.73
2018-12-19T09:40:09.865Z,16.10
2018-12-19T09:42:38.157Z,17.70
2018-12-19T09:45:06.598Z,15.48
2018-12-19T09:47:34.919Z,16.27
2018-12-19T09:50:04.217Z,15.03
2018-12-19T09:52:32.546Z,17.10
2018-12-19T09:55:00.885Z,16.07
2018-12-19T09:57:29.393Z,16.63
2018-12-19T09:59:57.758Z,17.20
2018-12-19T10:02:26.157Z,18.17
2018-12-19T10:04:54.511Z,16.23
2018-12-19T10:07:22.947Z,18.47
2018-12-19T10:09:51.312Z,15.47
2018-12-19T10:12:19.627Z,17.60
2018-12-19T10:14:47.960Z,17.27
2018-12-19T10:17:16.311Z,17.40
2018-12-19T10:19:44.650Z,17.73
2018-12-19T10:22:14.923Z,18.47
2018-12-19T10:24:47.149Z,17.73
2018-12-19T10:27:17.464Z,18.98
2018-12-19T10:29:45.843Z,17.67
2018-12-19T10:32:14.158Z,18.40
2018-12-19T10:34:43.077Z,16.77
2018-12-19T10:37:11.400Z,17.57
2018-12-19T10:39:39.769Z,17.55
2018-12-19T10:42:08.397Z,15.77
2018-12-19T10:44:36.819Z,18.00
2018-12-19T10:47:05.152Z,15.37
2018-12-19T10:49:33.533Z,15.03
2018-12-19T10:52:01.871Z,15.03
2018-12-19T10:54:30.226Z,14.87
2018-12-19T10:56:58.589Z,15.47
2018-12-19T10:59:26.945Z,15.53
2018-12-19T11:01:56.127Z,15.10
2018-12-19T11:04:25.092Z,15.23
2018-12-19T11:06:54.510Z,16.37
2018-12-19T11:09:23.341Z,15.47
2018-12-19T11:11:52.377Z,14.70
2018-12-19T11:14:21.418Z,13.85
2018-12-19T11:16:49.757Z,13.50
2018-12-19T11:19:18.076Z,14.90
2018-12-19T11:21:46.510Z,15.93
2018-12-19T11:24:14.820Z,15.03
2018-12-19T11:26:43.237Z,14.10
2018-12-19T11:29:11.572Z,14.83
2018-12-19T11:31:39.916Z,13.60
2018-12-19T11:34:08.611Z,14.07
2018-12-19T11:36:36.930Z,13.87
2018-12-19T11:39:06.770Z,14.60
2018-12-19T11:41:38.981Z,14.60
2018-12-19T11:44:05.721Z,13.73
2018-12-19T11:46:34.477Z,15.00
2018-12-19T11:49:02.899Z,16.70
2018-12-19T11:51:31.253Z,15.50
2018-12-19T11:53:59.557Z,13.10
2018-12-19T11:56:27.911Z,12.90
2018-12-19T11:58:56.279Z,12.00
2018-12-19T12:01:24.603Z,12.80
2018-12-19T12:03:52.919Z,13.20
2018-12-19T12:06:21.301Z,14.87
2018-12-19T12:08:49.633Z,15.43
2018-12-19T12:11:17.978Z,12.57
2018-12-19T12:13:46.330Z,13.93
2018-12-19T12:16:14.717Z,13.97
2018-12-19T12:18:43.137Z,14.53
2018-12-19T12:21:11.455Z,13.70
2018-12-19T12:23:39.815Z,12.73
2018-12-19T12:26:08.144Z,14.00
2018-12-19T12:28:36.540Z,15.90
2018-12-19T12:31:05.015Z,13.62
2018-12-19T12:33:33.391Z,14.47
2018-12-19T12:36:02.013Z,14.20
2018-12-19T12:38:34.084Z,13.60
2018-12-19T12:41:00.748Z,13.73
2018-12-19T12:43:29.134Z,14.13
2018-12-19T12:45:57.425Z,12.80
2018-12-19T12:48:25.810Z,13.03
2018-12-19T12:50:54.131Z,13.87
2018-12-19T12:53:22.497Z,15.00
2018-12-19T12:55:50.823Z,13.13
2018-12-19T12:58:19.181Z,13.30
2018-12-19T13:00:47.510Z,12.23
2018-12-19T13:03:15.917Z,13.60
2018-12-19T13:05:44.266Z,13.77
2018-12-19T13:08:12.707Z,12.83
2018-12-19T13:10:41.021Z,14.37
2018-12-19T13:13:09.600Z,13.25
2018-12-19T13:15:40.696Z,13.90
2018-12-19T13:18:09.995Z,13.75
2018-12-19T13:20:38.329Z,12.27
2018-12-19T13:23:06.721Z,12.25
2018-12-19T13:25:35.043Z,12.75
2018-12-19T13:28:03.412Z,13.97
2018-12-19T13:30:31.748Z,15.13
2018-12-19T13:33:00.071Z,12.20
2018-12-19T13:35:28.424Z,11.03
2018-12-19T13:37:56.774Z,11.60
2018-12-19T13:40:25.131Z,12.25
2018-12-19T13:42:53.460Z,10.87
2018-12-19T13:45:21.813Z,10.70
2018-12-19T13:47:50.145Z,11.83
2018-12-19T13:50:18.700Z,11.78
2018-12-19T13:52:47.044Z,10.80
2018-12-19T13:55:15.389Z,11.17
2018-12-19T13:57:43.713Z,11.10
2018-12-19T14:00:12.913Z,11.30
2018-12-19T14:02:41.254Z,11.03
2018-12-19T14:05:11.306Z,12.73
2018-12-19T14:07:39.640Z,10.93
2018-12-19T14:10:09.168Z,12.50
2018-12-19T14:12:37.498Z,13.50
2018-12-19T14:15:06.779Z,13.28
2018-12-19T14:17:35.115Z,13.23
2018-12-19T14:20:05.078Z,12.23
2018-12-19T14:22:33.405Z,12.47
2018-12-19T14:25:01.762Z,12.60
2018-12-19T14:27:30.076Z,21.40
2018-12-19T14:29:58.440Z,15.57
2018-12-19T14:32:26.770Z,13.60
2018-12-19T14:34:55.140Z,12.65
2018-12-19T14:37:23.458Z,14.30
2018-12-19T14:39:51.804Z,11.30
2018-12-19T14:42:20.137Z,12.93
2018-12-19T14:44:48.491Z,12.30
2018-12-19T14:47:16.836Z,14.27
2018-12-19T14:49:45.208Z,12.20
2018-12-19T14:52:13.520Z,12.33
2018-12-19T14:54:41.881Z,12.87
2018-12-19T14:57:10.303Z,12.73
2018-12-19T14:59:38.665Z,13.47
2018-12-19T15:02:08.386Z,12.00
2018-12-19T15:04:36.738Z,12.98
2018-12-19T15:07:05.070Z,12.87
2018-12-19T15:09:33.429Z,11.78
2018-12-19T15:12:01.795Z,13.90
2018-12-19T15:14:30.118Z,12.50
2018-12-19T15:16:58.471Z,11.93
2018-12-19T15:19:26.810Z,11.77
2018-12-19T15:21:55.173Z,12.73
2018-12-19T15:24:23.540Z,13.68
2018-12-19T15:26:51.961Z,13.47
2018-12-19T15:29:20.339Z,12.37
2018-12-19T15:31:48.674Z,12.70
2018-12-19T15:34:17.075Z,12.78
2018-12-19T15:36:45.422Z,13.47
2018-12-19T15:39:13.776Z,14.80
2018-12-19T15:41:42.157Z,13.03
2018-12-19T15:44:10.565Z,13.37
2018-12-19T15:46:38.897Z,13.50
2018-12-19T15:49:07.223Z,14.80
2018-12-19T15:51:35.644Z,14.40
2018-12-19T15:54:04.073Z,13.83
2018-12-19T15:56:32.518Z,14.90
2018-12-19T15:59:00.840Z,13.53
2018-12-19T16:01:29.601Z,13.03
2018-12-19T16:03:57.941Z,14.20
2018-12-19T16:06:26.302Z,13.48
2018-12-19T16:08:54.632Z,13.20
2018-12-19T16:11:23.504Z,13.60
2018-12-19T16:13:51.835Z,13.73
2018-12-19T16:16:20.252Z,13.17
2018-12-19T16:18:48.595Z,13.25
2018-12-19T16:21:17.160Z,12.90
2018-12-19T16:23:45.465Z,14.03
2018-12-19T16:26:14.179Z,13.43
2018-12-19T16:28:42.489Z,13.22
2018-12-19T16:31:10.844Z,12.57
2018-12-19T16:33:39.175Z,13.40
2018-12-19T16:36:07.635Z,14.37
2018-12-19T16:38:36.045Z,13.77
2018-12-19T16:41:04.398Z,12.95
2018-12-19T16:43:32.746Z,13.30
2018-12-19T16:46:01.223Z,13.40
2018-12-19T16:48:29.584Z,13.75
2018-12-19T16:50:57.918Z,13.53
2018-12-19T16:53:26.968Z,12.55
2018-12-19T16:55:55.299Z,13.47
2018-12-19T16:58:23.699Z,13.13
2018-12-19T17:00:52.004Z,12.20
2018-12-19T17:03:20.355Z,12.80
2018-12-19T17:05:48.681Z,14.37
2018-12-19T17:08:17.048Z,13.50
2018-12-19T17:10:45.416Z,13.27
2018-12-19T17:13:13.769Z,15.17
2018-12-19T17:15:42.106Z,15.30
2018-12-19T17:18:10.656Z,14.33
2018-12-19T17:20:39.004Z,13.33
2018-12-19T17:23:07.432Z,14.33
2018-12-19T17:25:35.772Z,14.37
2018-12-19T17:28:04.219Z,14.33
2018-12-19T17:30:32.569Z,15.97
2018-12-19T17:33:00.917Z,15.17
2018-12-19T17:35:29.268Z,14.93
2018-12-19T17:37:57.626Z,14.87
2018-12-19T17:40:26.015Z,14.80
2018-12-19T17:42:59.436Z,15.20
2018-12-19T17:45:24.791Z,15.93
2018-12-19T17:47:53.130Z,16.10
2018-12-19T17:50:21.474Z,15.97
2018-12-19T17:52:49.865Z,14.10
2018-12-19T17:55:18.274Z,14.77
2018-12-19T17:57:46.702Z,15.17
2018-12-19T18:00:15.831Z,13.67
2018-12-19T18:02:44.133Z,13.13
2018-12-19T18:05:12.712Z,12.73
2018-12-19T18:07:41.033Z,13.10
2018-12-19T18:10:09.386Z,13.00
2018-12-19T18:12:37.738Z,13.20
2018-12-19T18:15:06.152Z,12.43
2018-12-19T18:17:34.600Z,12.60
2018-12-19T18:20:04.454Z,12.93
2018-12-19T18:22:32.763Z,12.20
2018-12-19T18:25:01.117Z,13.60
2018-12-19T18:27:30.406Z,12.80
2018-12-19T18:29:58.754Z,12.37
2018-12-19T18:32:27.093Z,13.25
2018-12-19T18:34:55.450Z,14.67
2018-12-19T18:37:23.786Z,13.90
2018-12-19T18:39:52.226Z,13.67
2018-12-19T18:42:20.585Z,12.53
2018-12-19T18:44:48.936Z,12.00
2018-12-19T18:47:17.621Z,15.10
2018-12-19T18:49:45.970Z,13.20
2018-12-19T18:52:14.575Z,12.88
2018-12-19T18:54:42.917Z,12.73
2018-12-19T18:57:13.244Z,13.20
2018-12-19T18:59:41.797Z,12.95
2018-12-19T19:02:10.134Z,14.40
2018-12-19T19:04:38.481Z,11.95
2018-12-19T19:07:06.854Z,13.80
2018-12-19T19:09:35.269Z,14.13
2018-12-19T19:12:04.589Z,13.37
2018-12-19T19:14:33.173Z,12.17
2018-12-19T19:17:01.520Z,12.53
2018-12-19T19:19:29.939Z,13.35
2018-12-19T19:21:58.261Z,13.63
2018-12-19T19:24:26.646Z,11.45
2018-12-19T19:26:55.105Z,11.80
2018-12-19T19:29:23.522Z,12.43
2018-12-19T19:31:51.891Z,12.63
2018-12-19T19:34:24.962Z,12.67
2018-12-19T19:36:50.630Z,11.60
2018-12-19T19:39:18.955Z,12.10
2018-12-19T19:41:47.359Z,11.57
2018-12-19T19:44:15.840Z,11.97
2018-12-19T19:46:45.536Z,12.80
2018-12-19T19:49:14.452Z,12.53
2018-12-19T19:51:42.840Z,12.03
2018-12-19T19:54:11.233Z,13.03
2018-12-19T19:56:39.547Z,13.97
2018-12-19T19:59:07.894Z,11.40
2018-12-19T20:01:36.390Z,12.80
2018-12-19T20:04:05.272Z,12.85
2018-12-19T20:06:33.630Z,11.97
2018-12-19T20:09:01.972Z,13.20
2018-12-19T20:11:30.318Z,12.63
2018-12-19T20:13:58.648Z,12.30
2018-12-19T20:16:27.006Z,12.50
2018-12-19T20:18:55.372Z,13.33
2018-12-19T20:21:23.719Z,12.67
2018-12-19T20:23:52.039Z,14.70
2018-12-19T20:26:20.386Z,14.30
2018-12-19T20:28:48.804Z,14.40
2018-12-19T20:31:17.117Z,15.17
2018-12-19T20:33:45.473Z,13.60
2018-12-19T20:36:13.995Z,13.95
2018-12-19T20:38:42.285Z,14.30
2018-12-19T20:41:10.731Z,13.87
2018-12-19T20:43:40.010Z,14.07
2018-12-19T20:46:08.697Z,14.40
2018-12-19T20:48:37.054Z,13.27
2018-12-19T20:51:05.415Z,15.43
2018-12-19T20:53:33.864Z,14.70
2018-12-19T20:56:03.912Z,14.07
2018-12-19T20:58:32.380Z,14.30
2018-12-19T21:01:00.880Z,15.20
2018-12-19T21:03:29.239Z,14.03
2018-12-19T21:05:57.554Z,13.97
2018-12-19T21:08:25.922Z,14.30
2018-12-19T21:10:54.263Z,13.80
2018-12-19T21:13:22.645Z,13.93
2018-12-19T21:15:50.988Z,15.60
2018-12-19T21:18:21.991Z,15.23
2018-12-19T21:20:50.318Z,18.70
2018-12-19T21:23:18.713Z,14.43
2018-12-19T21:25:47.038Z,14.53
2018-12-19T21:28:15.377Z,14.60
2018-12-19T21:30:43.781Z,14.60
2018-12-19T21:33:14.206Z,13.80
2018-12-19T21:35:42.843Z,15.00
2018-12-19T21:38:11.270Z,14.07
2018-12-19T21:40:39.679Z,15.60
2018-12-19T21:43:08.374Z,15.10
2018-12-19T21:45:36.789Z,14.98
2018-12-19T21:48:05.188Z,15.33
2018-12-19T21:50:33.587Z,12.97
2018-12-19T21:53:02.089Z,14.43
2018-12-19T21:55:30.465Z,15.20
2018-12-19T21:57:58.805Z,14.67
2018-12-19T22:00:27.670Z,15.33
2018-12-19T22:02:56.126Z,14.07
2018-12-19T22:05:24.583Z,14.43
2018-12-19T22:07:52.992Z,15.10
2018-12-19T22:10:21.397Z,15.07
2018-12-19T22:12:49.763Z,14.87
2018-12-19T22:15:18.315Z,14.70
2018-12-19T22:17:47.050Z,14.73
2018-12-19T22:20:15.942Z,15.03
2018-12-19T22:22:44.358Z,15.20
2018-12-19T22:25:13.276Z,14.78
2018-12-19T22:27:41.699Z,14.50
2018-12-19T22:30:10.218Z,14.27
2018-12-19T22:32:38.561Z,14.10
2018-12-19T22:35:06.994Z,13.50
2018-12-19T22:37:35.368Z,14.90
2018-12-19T22:40:06.154Z,13.70
2018-12-19T22:42:34.541Z,13.17
2018-12-19T22:45:03.373Z,14.80
2018-12-19T22:47:31.813Z,12.93
2018-12-19T22:50:00.823Z,13.60
2018-12-19T22:52:29.373Z,13.90
2018-12-19T22:54:57.812Z,13.95
2018-12-19T22:57:26.188Z,14.90
2018-12-19T22:59:54.672Z,14.70
2018-12-19T23:02:25.679Z,14.77
2018-12-19T23:04:54.061Z,14.87
2018-12-19T23:07:22.463Z,12.93
2018-12-19T23:09:50.842Z,14.40
2018-12-19T23:12:19.311Z,15.47
2018-12-19T23:14:47.795Z,14.70
2018-12-19T23:17:19.929Z,14.00
2018-12-19T23:19:48.398Z,14.30
2018-12-19T23:22:16.835Z,14.98
2018-12-19T23:24:45.228Z,14.00
2018-12-19T23:27:13.741Z,15.18
2018-12-19T23:29:42.155Z,14.27
2018-12-19T23:32:10.597Z,14.58
2018-12-19T23:34:39.419Z,14.80
2018-12-19T23:37:08.553Z,13.70
2018-12-19T23:39:37.075Z,13.90
2018-12-19T23:42:05.527Z,15.35
2018-12-19T23:44:33.963Z,14.13
2018-12-19T23:47:02.562Z,14.10
2018-12-19T23:49:30.964Z,15.20
2018-12-19T23:51:59.327Z,15.10
2018-12-19T23:54:29.152Z,14.23
2018-12-19T23:56:57.891Z,14.23
2018-12-19T23:59:26.320Z,14.23
